This is the latest recevied weather packets stored in our database for station/object N7SWJ. If no packets are shown the sender has not sent any weather packets the latest 10 day(s).
| Time | Temp. | Humidity | Pressure | Rain* | Wind** | Luminosity | Snow |
|---|---|---|---|---|---|---|---|
| 1778106409 | 7.78° C | 57% | 1020.4 hPa | 0 mm | - | 510 W/m² | - |
| 1778106105 | 7.78° C | 57% | 1020.4 hPa | 0 mm | - | 539 W/m² | - |
| 1778105803 | 8.33° C | 56% | 1020.6 hPa | 0 mm | - | 156 W/m² | - |
| 1778105501 | 8.89° C | 54% | 1020.6 hPa | 0 mm | - | 298 W/m² | - |
| 1778105198 | 8.33° C | 53% | 1020.7 hPa | 0 mm | - | 552 W/m² | - |
| 1778104892 | 8.89° C | 53% | 1020.6 hPa | 0 mm | - | 406 W/m² | - |
| 1778104590 | 8.33° C | 56% | 1020.9 hPa | 0 mm | - | 262 W/m² | - |
| 1778104285 | 7.78° C | 58% | 1020.9 hPa | 0 mm | - | 706 W/m² | - |
| 1778103982 | 8.33° C | 56% | 1020.9 hPa | 0 mm | - | 240 W/m² | - |
| 1778103680 | 7.22° C | 59% | 1020.9 hPa | 0 mm | - | 492 W/m² | - |
| 1778103378 | 7.22° C | 58% | 1020.9 hPa | 0 mm | - | 204 W/m² | - |
| 1778103074 | 7.22° C | 58% | 1021.1 hPa | 0 mm | - | 247 W/m² | - |
| 1778102772 | 7.78° C | 57% | 1020.9 hPa | 0 mm | - | 285 W/m² | - |
| 1778102466 | 7.22° C | 59% | 1021.2 hPa | 0 mm | - | 292 W/m² | - |
| 1778102162 | 7.22° C | 60% | 1021.2 hPa | 0 mm | - | 269 W/m² | - |
| 1778101860 | 6.67° C | 62% | 1021.3 hPa | 0 mm | - | 236 W/m² | - |
| 1778101556 | 6.67° C | 62% | 1021.4 hPa | 0 mm | - | 265 W/m² | - |
| 1778101253 | 6.11° C | 65% | 1021.5 hPa | 0 mm | - | 291 W/m² | - |
| 1778100950 | 6.11° C | 61% | 1021.6 hPa | 0 mm | - | 206 W/m² | - |
| 1778100644 | 6.11° C | 62% | 1021.6 hPa | 0 mm | - | 184 W/m² | - |
| 1778100343 | 6.67° C | 61% | 1021.5 hPa | 0 mm | - | 204 W/m² | - |
| 1778100040 | 6.67° C | 63% | 1022 hPa | 0 mm | - | 217 W/m² | - |
| 1778099738 | 6.11° C | 60% | 1021.5 hPa | 0 mm | - | 233 W/m² | - |
| 1778099434 | 6.67° C | 60% | 1022 hPa | 0 mm | - | 254 W/m² | - |
| 1778099132 | 6.11° C | 63% | 1022 hPa | 0 mm | - | 279 W/m² | - |
* Rain latest hour (hover to see other rain measurements)
** Current wind speed in m/s (hover to see current wind gust speed)